createdAt,value
2023-03-20T00:02:22.201Z,7.87
2023-03-20T00:05:26.542Z,7.85
2023-03-20T00:08:11.986Z,7.70
2023-03-20T00:10:59.050Z,7.50
2023-03-20T00:13:44.351Z,7.52
2023-03-20T00:16:49.187Z,7.51
2023-03-20T00:19:34.834Z,7.07
2023-03-20T00:22:20.461Z,7.35
2023-03-20T00:25:06.496Z,7.40
2023-03-20T00:27:52.201Z,7.33
2023-03-20T00:30:37.603Z,7.34
2023-03-20T00:33:22.814Z,7.37
2023-03-20T00:36:09.531Z,7.04
2023-03-20T00:38:55.519Z,7.38
2023-03-20T00:41:52.707Z,7.34
2023-03-20T00:44:50.171Z,7.27
2023-03-20T00:47:37.647Z,7.20
2023-03-20T00:50:28.282Z,7.11
2023-03-20T00:53:13.469Z,7.01
2023-03-20T00:55:59.496Z,7.04
2023-03-20T00:58:44.615Z,7.06
2023-03-20T01:01:31.392Z,7.03
2023-03-20T01:04:19.435Z,7.01
2023-03-20T01:07:06.007Z,7.04
2023-03-20T01:09:51.211Z,6.99
2023-03-20T01:12:38.923Z,7.04
2023-03-20T01:15:31.539Z,7.00
2023-03-20T01:18:18.287Z,6.87
2023-03-20T01:21:03.610Z,7.16
2023-03-20T01:23:49.722Z,7.13
2023-03-20T01:26:39.525Z,6.92
2023-03-20T01:29:26.622Z,7.01
2023-03-20T01:32:14.961Z,6.96
2023-03-20T01:35:01.181Z,7.10
2023-03-20T01:37:46.991Z,7.10
2023-03-20T01:40:43.400Z,6.69
2023-03-20T01:43:29.748Z,6.67
2023-03-20T01:46:17.168Z,6.62
2023-03-20T01:49:28.439Z,6.49
2023-03-20T01:52:17.281Z,6.36
2023-03-20T01:55:02.458Z,6.38
2023-03-20T01:57:48.943Z,6.31
2023-03-20T02:00:35.613Z,6.15
2023-03-20T02:03:23.025Z,6.50
2023-03-20T02:06:19.563Z,6.09
2023-03-20T02:09:23.790Z,6.55
2023-03-20T02:12:10.952Z,6.59
2023-03-20T02:14:57.628Z,6.24
2023-03-20T02:18:05.422Z,6.62
2023-03-20T02:21:13.841Z,6.66
2023-03-20T02:24:14.497Z,6.62
2023-03-20T02:27:12.019Z,6.62
2023-03-20T02:30:18.299Z,6.61
2023-03-20T02:33:25.553Z,6.61
2023-03-20T02:36:40.765Z,6.58
2023-03-20T02:39:50.924Z,6.58
2023-03-20T02:43:02.553Z,6.59
2023-03-20T02:45:59.274Z,6.53
2023-03-20T02:48:53.738Z,6.46
2023-03-20T02:52:00.223Z,6.51
2023-03-20T02:54:54.470Z,6.46
2023-03-20T02:57:39.915Z,6.45
2023-03-20T03:00:36.642Z,6.51
2023-03-20T03:03:37.054Z,6.41
2023-03-20T03:06:28.288Z,6.45
2023-03-20T03:09:19.865Z,6.38
2023-03-20T03:12:12.384Z,6.19
2023-03-20T03:15:03.806Z,6.47
2023-03-20T03:17:49.514Z,6.46
2023-03-20T03:20:39.582Z,6.15
2023-03-20T03:23:46.737Z,6.53
2023-03-20T03:26:38.416Z,6.40
2023-03-20T03:29:26.162Z,6.06
2023-03-20T03:32:35.712Z,6.53
2023-03-20T03:35:22.433Z,6.57
2023-03-20T03:38:37.047Z,6.59
2023-03-20T03:41:25.044Z,6.53
2023-03-20T03:44:21.799Z,6.53
2023-03-20T03:47:12.745Z,6.53
2023-03-20T03:50:04.601Z,6.58
2023-03-20T03:52:51.890Z,6.61
2023-03-20T03:55:45.750Z,6.58
2023-03-20T03:58:36.087Z,6.68
2023-03-20T04:01:23.916Z,6.73
2023-03-20T04:04:10.563Z,6.74
2023-03-20T04:06:56.419Z,6.60
2023-03-20T04:09:42.093Z,6.61
2023-03-20T04:12:37.775Z,6.62
2023-03-20T04:15:24.582Z,6.61
2023-03-20T04:18:17.763Z,6.64
2023-03-20T04:21:04.605Z,6.62
2023-03-20T04:23:50.311Z,6.20
2023-03-20T04:26:36.089Z,6.56
2023-03-20T04:29:21.715Z,6.69
2023-03-20T04:32:17.999Z,6.73
2023-03-20T04:35:27.076Z,6.80
2023-03-20T04:38:20.788Z,6.79
2023-03-20T04:41:07.337Z,6.79
2023-03-20T04:43:52.706Z,6.84
2023-03-20T04:46:37.914Z,6.81
2023-03-20T04:49:31.672Z,6.80
2023-03-20T04:52:17.403Z,6.64
2023-03-20T04:55:04.455Z,6.67
2023-03-20T04:57:50.851Z,6.62
2023-03-20T05:00:36.169Z,6.72
2023-03-20T05:03:23.961Z,6.74
2023-03-20T05:06:10.500Z,6.79
2023-03-20T05:09:00.115Z,6.85
2023-03-20T05:11:47.352Z,6.91
2023-03-20T05:14:52.889Z,6.97
2023-03-20T05:17:57.056Z,6.97
2023-03-20T05:20:53.092Z,7.03
2023-03-20T05:23:51.727Z,7.07
2023-03-20T05:26:55.170Z,7.07
2023-03-20T05:30:00.838Z,7.01
2023-03-20T05:33:15.713Z,7.05
2023-03-20T05:36:11.990Z,7.10
2023-03-20T05:39:27.129Z,6.84
2023-03-20T05:42:18.608Z,7.02
2023-03-20T05:45:24.799Z,7.00
2023-03-20T05:48:49.007Z,7.08
2023-03-20T05:52:02.786Z,7.15
2023-03-20T05:55:11.267Z,7.21
2023-03-20T05:58:06.064Z,7.25
2023-03-20T06:01:22.024Z,7.14
2023-03-20T06:04:07.452Z,7.20
2023-03-20T06:07:08.595Z,7.29
2023-03-20T06:09:55.878Z,7.28
2023-03-20T06:12:41.531Z,7.30
2023-03-20T06:15:28.329Z,7.09
2023-03-20T06:18:20.943Z,7.14
2023-03-20T06:21:06.836Z,7.01
2023-03-20T06:23:52.384Z,7.12
2023-03-20T06:26:40.504Z,7.20
2023-03-20T06:29:29.232Z,7.15
2023-03-20T06:32:23.841Z,7.00
2023-03-20T06:35:11.433Z,7.22
2023-03-20T06:38:02.099Z,6.97
2023-03-20T06:40:47.451Z,7.27
2023-03-20T06:43:36.276Z,7.31
2023-03-20T06:46:21.804Z,7.39
2023-03-20T06:49:07.340Z,7.34
2023-03-20T06:51:53.971Z,7.47
2023-03-20T06:54:44.710Z,7.48
2023-03-20T06:57:30.030Z,7.54
2023-03-20T07:00:16.091Z,7.53
2023-03-20T07:03:02.443Z,7.50
2023-03-20T07:05:48.108Z,7.54
2023-03-20T07:08:35.339Z,7.43
2023-03-20T07:11:21.140Z,7.32
2023-03-20T07:14:07.479Z,7.34
2023-03-20T07:17:03.994Z,7.61
2023-03-20T07:19:51.353Z,7.68
2023-03-20T07:22:37.007Z,7.75
2023-03-20T07:25:42.263Z,7.22
2023-03-20T07:28:30.886Z,7.62
2023-03-20T07:31:29.051Z,7.85
2023-03-20T07:34:27.505Z,7.92
2023-03-20T07:37:14.282Z,7.89
2023-03-20T07:40:05.836Z,7.84
2023-03-20T07:42:53.404Z,7.91
2023-03-20T07:46:06.534Z,7.92
2023-03-20T07:48:52.899Z,7.93
2023-03-20T07:51:38.423Z,7.90
2023-03-20T07:54:24.419Z,7.97
2023-03-20T07:57:09.949Z,8.05
2023-03-20T07:59:55.093Z,7.95
2023-03-20T08:02:40.613Z,7.72
2023-03-20T08:05:26.122Z,7.73
2023-03-20T08:08:11.670Z,7.75
2023-03-20T08:10:57.371Z,7.69
2023-03-20T08:13:43.055Z,7.65
2023-03-20T08:16:28.183Z,7.73
2023-03-20T08:19:13.703Z,7.67
2023-03-20T08:21:59.025Z,7.82
2023-03-20T08:24:44.532Z,7.95
2023-03-20T08:27:30.215Z,7.90
2023-03-20T08:30:15.824Z,7.94
2023-03-20T08:33:01.054Z,8.10
2023-03-20T08:35:59.192Z,7.53
2023-03-20T08:38:44.532Z,7.94
2023-03-20T08:41:29.635Z,8.02
2023-03-20T08:44:14.814Z,7.99
2023-03-20T08:47:00.239Z,8.09
2023-03-20T08:49:45.665Z,7.80
2023-03-20T08:52:30.889Z,7.97
2023-03-20T08:55:16.549Z,8.07
2023-03-20T08:58:02.282Z,8.18
2023-03-20T09:00:47.866Z,8.17
2023-03-20T09:03:33.256Z,8.16
2023-03-20T09:06:18.777Z,7.73
2023-03-20T09:09:05.021Z,7.82
2023-03-20T09:11:50.446Z,7.91
2023-03-20T09:14:35.753Z,7.80
2023-03-20T09:17:21.201Z,7.29
2023-03-20T09:20:06.951Z,7.64
2023-03-20T09:22:52.372Z,7.61
2023-03-20T09:25:38.065Z,7.69
2023-03-20T09:28:23.680Z,7.86
2023-03-20T09:31:09.394Z,7.74
2023-03-20T09:33:55.082Z,7.83
2023-03-20T09:36:40.276Z,7.95
2023-03-20T09:39:25.579Z,8.04
2023-03-20T09:42:16.431Z,7.95
2023-03-20T09:45:37.263Z,7.85
2023-03-20T09:48:35.284Z,7.76
2023-03-20T09:51:36.023Z,8.11
2023-03-20T09:54:43.379Z,8.05
2023-03-20T09:57:41.357Z,7.64
2023-03-20T10:00:29.447Z,7.64
2023-03-20T10:03:39.106Z,8.04
2023-03-20T10:06:24.518Z,8.13
2023-03-20T10:09:25.159Z,8.04
2023-03-20T10:12:34.126Z,7.85
2023-03-20T10:15:28.702Z,8.00
2023-03-20T10:18:24.808Z,8.20
2023-03-20T10:21:17.521Z,8.25
2023-03-20T10:24:06.186Z,8.30
2023-03-20T10:26:55.659Z,8.15
2023-03-20T10:30:02.956Z,8.00
2023-03-20T10:33:00.679Z,8.11
2023-03-20T10:36:04.171Z,8.40
2023-03-20T10:39:11.072Z,8.63
2023-03-20T10:42:00.801Z,8.61
2023-03-20T10:44:54.339Z,8.53
2023-03-20T10:47:42.495Z,8.55
2023-03-20T10:50:40.199Z,8.47
2023-03-20T10:53:31.533Z,8.52
2023-03-20T10:56:29.054Z,8.80
2023-03-20T10:59:27.645Z,8.88
2023-03-20T11:02:14.960Z,8.94
2023-03-20T11:05:02.445Z,8.99
2023-03-20T11:07:51.926Z,9.09
2023-03-20T11:10:38.754Z,8.84
2023-03-20T11:13:39.263Z,8.85
2023-03-20T11:16:35.540Z,9.13
2023-03-20T11:19:23.553Z,9.38
2023-03-20T11:22:23.514Z,9.48
2023-03-20T11:25:24.908Z,9.57
2023-03-20T11:28:26.881Z,9.80
2023-03-20T11:31:27.604Z,9.80
2023-03-20T11:34:15.833Z,9.99
2023-03-20T11:37:10.508Z,10.11
2023-03-20T11:40:31.286Z,10.59
2023-03-20T11:43:25.098Z,10.33
2023-03-20T11:46:13.610Z,10.09
2023-03-20T11:49:05.921Z,10.06
2023-03-20T11:51:52.646Z,10.28
2023-03-20T11:54:45.815Z,10.13
2023-03-20T11:57:41.058Z,10.13
2023-03-20T12:00:38.029Z,9.76
2023-03-20T12:03:41.629Z,9.91
2023-03-20T12:06:37.459Z,10.01
2023-03-20T12:09:51.970Z,10.23
2023-03-20T12:12:56.711Z,10.02
2023-03-20T12:15:47.089Z,10.02
2023-03-20T12:18:38.899Z,10.00
2023-03-20T12:21:46.628Z,10.10
2023-03-20T12:24:45.179Z,9.87
2023-03-20T12:27:36.855Z,9.53
2023-03-20T12:31:04.087Z,9.35
2023-03-20T12:33:52.479Z,9.53
2023-03-20T12:36:41.591Z,9.59
2023-03-20T12:39:33.999Z,9.59
2023-03-20T12:42:49.624Z,9.70
2023-03-20T12:45:42.688Z,9.68
2023-03-20T12:48:41.540Z,9.70
2023-03-20T12:51:47.108Z,9.71
2023-03-20T12:54:51.050Z,9.76
2023-03-20T12:57:52.770Z,9.80
2023-03-20T13:00:46.007Z,9.55
2023-03-20T13:03:46.408Z,9.70
2023-03-20T13:06:52.692Z,9.89
2023-03-20T13:09:56.803Z,10.22
2023-03-20T13:13:16.268Z,10.27
2023-03-20T13:16:24.060Z,10.11
2023-03-20T13:19:25.999Z,10.23
2023-03-20T13:22:28.071Z,10.14
2023-03-20T13:25:40.823Z,9.56
2023-03-20T13:28:56.844Z,10.62
2023-03-20T13:32:01.141Z,10.69
2023-03-20T13:35:14.823Z,10.77
2023-03-20T13:38:12.166Z,10.87
2023-03-20T13:41:02.219Z,10.54
2023-03-20T13:43:51.147Z,10.22
2023-03-20T13:46:45.900Z,9.72
2023-03-20T13:49:38.426Z,9.58
2023-03-20T13:52:28.708Z,9.73
2023-03-20T13:55:24.020Z,9.82
2023-03-20T13:58:43.562Z,9.96
2023-03-20T14:01:46.062Z,9.97
2023-03-20T14:04:32.530Z,10.00
2023-03-20T14:07:30.118Z,10.31
2023-03-20T14:10:21.229Z,10.14
2023-03-20T14:13:19.135Z,9.94
2023-03-20T14:16:08.850Z,9.88
2023-03-20T14:19:06.343Z,9.82
2023-03-20T14:21:55.519Z,9.61
2023-03-20T14:24:50.884Z,9.20
2023-03-20T14:27:54.581Z,9.34
2023-03-20T14:30:39.872Z,9.23
2023-03-20T14:33:30.328Z,9.35
2023-03-20T14:36:21.432Z,9.53
2023-03-20T14:39:38.703Z,9.95
2023-03-20T14:42:39.716Z,10.03
2023-03-20T14:45:51.564Z,9.59
2023-03-20T14:48:50.589Z,9.70
2023-03-20T14:51:45.788Z,9.82
2023-03-20T14:54:31.058Z,10.00
2023-03-20T14:57:19.407Z,9.97
2023-03-20T15:00:05.775Z,10.07
2023-03-20T15:02:53.782Z,10.01
2023-03-20T15:05:41.112Z,9.81
2023-03-20T15:08:31.388Z,9.35
2023-03-20T15:11:17.376Z,9.71
2023-03-20T15:14:08.771Z,9.53
2023-03-20T15:16:58.921Z,9.66
2023-03-20T15:19:45.016Z,9.96
2023-03-20T15:22:30.391Z,9.95
2023-03-20T15:25:17.607Z,10.06
2023-03-20T15:28:07.923Z,10.12
2023-03-20T15:30:57.315Z,9.92
2023-03-20T15:33:42.914Z,9.47
2023-03-20T15:36:34.543Z,9.80
2023-03-20T15:39:23.286Z,9.87
2023-03-20T15:42:14.772Z,9.97
2023-03-20T15:45:00.222Z,9.76
2023-03-20T15:47:45.387Z,9.71
2023-03-20T15:50:38.642Z,9.47
2023-03-20T15:53:30.694Z,9.69
2023-03-20T15:56:19.728Z,9.67
2023-03-20T15:59:05.175Z,9.55
2023-03-20T16:01:55.611Z,9.41
2023-03-20T16:04:50.913Z,9.45
2023-03-20T16:07:36.215Z,9.40
2023-03-20T16:10:28.677Z,9.30
2023-03-20T16:13:15.309Z,9.20
2023-03-20T16:16:03.193Z,9.32
2023-03-20T16:18:49.348Z,9.26
2023-03-20T16:21:38.799Z,9.43
2023-03-20T16:24:30.736Z,8.81
2023-03-20T16:27:24.226Z,9.26
2023-03-20T16:30:16.679Z,9.07
2023-03-20T16:33:07.081Z,9.28
2023-03-20T16:35:52.481Z,8.89
2023-03-20T16:38:37.928Z,9.07
2023-03-20T16:41:34.866Z,8.96
2023-03-20T16:44:28.102Z,9.10
2023-03-20T16:47:13.718Z,9.34
2023-03-20T16:50:21.572Z,9.25
2023-03-20T16:53:16.101Z,9.09
2023-03-20T16:56:02.730Z,8.82
2023-03-20T16:58:47.974Z,9.00
2023-03-20T17:01:33.582Z,8.69
2023-03-20T17:04:33.570Z,8.91
2023-03-20T17:07:19.922Z,8.97
2023-03-20T17:10:17.733Z,8.92
2023-03-20T17:13:03.202Z,8.83
2023-03-20T17:15:48.483Z,8.85
2023-03-20T17:18:37.700Z,8.87
2023-03-20T17:21:22.841Z,8.80
2023-03-20T17:24:09.434Z,8.76
2023-03-20T17:26:55.645Z,8.83
2023-03-20T17:29:41.792Z,8.69
2023-03-20T17:32:27.274Z,8.63
2023-03-20T17:35:12.900Z,8.11
2023-03-20T17:37:59.559Z,8.39
2023-03-20T17:40:45.583Z,8.32
2023-03-20T17:43:31.210Z,8.02
2023-03-20T17:46:22.166Z,7.84
2023-03-20T17:49:13.577Z,8.07
2023-03-20T17:51:58.756Z,7.59
2023-03-20T17:54:45.035Z,8.00
2023-03-20T17:57:38.671Z,8.04
2023-03-20T18:00:24.546Z,7.94
2023-03-20T18:03:10.564Z,7.95
2023-03-20T18:05:56.215Z,7.85
2023-03-20T18:08:41.822Z,7.85
2023-03-20T18:11:28.013Z,7.69
2023-03-20T18:14:13.415Z,7.71
2023-03-20T18:17:01.593Z,7.81
2023-03-20T18:19:47.691Z,7.99
2023-03-20T18:22:33.160Z,7.90
2023-03-20T18:25:24.497Z,7.93
2023-03-20T18:28:15.500Z,7.66
2023-03-20T18:31:01.038Z,7.73
2023-03-20T18:33:52.336Z,7.74
2023-03-20T18:36:37.543Z,7.69
2023-03-20T18:39:24.449Z,7.72
2023-03-20T18:42:09.778Z,7.45
2023-03-20T18:44:54.946Z,7.03
2023-03-20T18:47:40.551Z,7.32
2023-03-20T18:50:32.074Z,7.37
2023-03-20T18:53:26.647Z,7.02
2023-03-20T18:56:18.280Z,6.89
2023-03-20T18:59:04.954Z,6.90
2023-03-20T19:01:53.530Z,6.51
2023-03-20T19:04:39.436Z,6.53
2023-03-20T19:07:24.846Z,6.53
2023-03-20T19:10:29.059Z,6.35
2023-03-20T19:13:17.783Z,5.76
2023-03-20T19:16:04.051Z,6.23
2023-03-20T19:18:49.284Z,6.25
2023-03-20T19:21:35.283Z,6.50
2023-03-20T19:24:20.520Z,6.67
2023-03-20T19:27:06.387Z,6.76
2023-03-20T19:29:51.757Z,6.82
2023-03-20T19:32:37.145Z,6.73
2023-03-20T19:38:29.422Z,6.24
2023-03-20T19:41:21.325Z,5.90
2023-03-20T19:44:07.744Z,5.99
2023-03-20T19:46:53.769Z,6.20
2023-03-20T19:49:39.449Z,5.96
2023-03-20T19:52:32.170Z,6.19
2023-03-20T19:55:17.560Z,6.12
2023-03-20T19:58:03.591Z,5.94
2023-03-20T20:01:11.620Z,5.97
2023-03-20T20:03:55.035Z,6.25
2023-03-20T20:06:42.760Z,6.23
2023-03-20T20:09:27.941Z,6.16
2023-03-20T20:12:13.927Z,6.25
2023-03-20T20:15:00.397Z,6.27
2023-03-20T20:17:47.581Z,6.15
2023-03-20T20:20:34.646Z,6.29
2023-03-20T20:23:26.150Z,6.13
2023-03-20T20:26:11.670Z,6.08
2023-03-20T20:28:59.869Z,6.12
2023-03-20T20:31:45.393Z,6.10
2023-03-20T20:40:45.500Z,5.95
2023-03-20T20:44:06.728Z,5.92
2023-03-20T20:46:36.061Z,5.93
2023-03-20T20:49:21.202Z,5.86
2023-03-20T20:52:07.481Z,5.82
2023-03-20T20:54:52.912Z,5.91
2023-03-20T20:57:38.472Z,5.92
2023-03-20T21:00:34.063Z,5.84
2023-03-20T21:03:26.858Z,5.98
2023-03-20T21:06:12.324Z,5.93
2023-03-20T21:08:57.513Z,5.86
2023-03-20T21:11:42.408Z,5.62
2023-03-20T21:14:27.524Z,5.60
2023-03-20T21:17:12.740Z,5.60
2023-03-20T21:19:58.136Z,5.65
2023-03-20T21:22:43.322Z,5.45
2023-03-20T21:25:39.545Z,4.94
2023-03-20T21:28:26.118Z,5.35
2023-03-20T21:31:24.491Z,5.73
2023-03-20T21:34:10.888Z,5.77
2023-03-20T21:36:59.642Z,5.37
2023-03-20T21:39:46.099Z,5.52
2023-03-20T21:42:31.312Z,5.41
2023-03-20T21:49:03.915Z,5.64
2023-03-20T21:58:17.344Z,5.44
2023-03-20T22:07:35.963Z,5.64
2023-03-20T22:10:39.788Z,5.76
2023-03-20T22:17:10.204Z,5.39
2023-03-20T22:20:07.185Z,5.24
2023-03-20T22:26:04.812Z,5.58
2023-03-20T22:32:20.776Z,5.66
2023-03-20T22:35:37.973Z,5.28
2023-03-20T22:47:04.970Z,5.48
2023-03-20T22:49:50.338Z,5.11
2023-03-20T22:52:48.279Z,5.57
2023-03-20T22:55:34.713Z,5.59
2023-03-20T22:58:20.143Z,5.72
2023-03-20T23:01:06.122Z,5.71
2023-03-20T23:03:51.158Z,5.67
2023-03-20T23:06:36.334Z,5.71
2023-03-20T23:09:21.506Z,5.88
2023-03-20T23:12:06.926Z,5.52
2023-03-20T23:14:52.427Z,5.57
2023-03-20T23:17:37.965Z,5.39
2023-03-20T23:20:23.474Z,5.51
2023-03-20T23:23:09.117Z,5.54
2023-03-20T23:26:03.397Z,5.36
2023-03-20T23:28:50.926Z,5.50
2023-03-20T23:31:36.324Z,5.40
2023-03-20T23:34:21.632Z,5.26
2023-03-20T23:37:06.845Z,5.43
2023-03-20T23:39:52.079Z,5.40
2023-03-20T23:42:37.657Z,5.44
2023-03-20T23:45:22.746Z,5.32
2023-03-20T23:48:08.222Z,5.39
2023-03-20T23:50:53.897Z,5.37
2023-03-20T23:53:39.002Z,5.29
2023-03-20T23:56:24.248Z,5.32
2023-03-20T23:59:20.543Z,5.36
